createdAt,value
2017-09-20T00:01:45.754Z,9.70
2017-09-20T00:04:56.659Z,9.70
2017-09-20T00:08:07.631Z,9.80
2017-09-20T00:11:18.255Z,9.70
2017-09-20T00:14:28.415Z,9.80
2017-09-20T00:17:40.230Z,10.00
2017-09-20T00:20:50.133Z,9.90
2017-09-20T00:24:01.248Z,10.00
2017-09-20T00:27:11.825Z,10.00
2017-09-20T00:30:22.130Z,10.00
2017-09-20T00:33:33.125Z,10.00
2017-09-20T00:36:43.382Z,10.00
2017-09-20T00:39:53.188Z,9.80
2017-09-20T00:43:02.854Z,9.80
2017-09-20T00:46:12.867Z,9.80
2017-09-20T00:49:22.960Z,9.80
2017-09-20T00:52:32.331Z,9.80
2017-09-20T00:55:42.181Z,9.90
2017-09-20T00:58:52.035Z,9.90
2017-09-20T01:02:02.230Z,9.90
2017-09-20T01:05:13.096Z,9.90
2017-09-20T01:08:23.150Z,9.90
2017-09-20T01:11:33.544Z,9.90
2017-09-20T01:14:43.926Z,9.90
2017-09-20T01:17:54.656Z,10.00
2017-09-20T01:21:16.375Z,9.90
2017-09-20T01:24:26.723Z,9.90
2017-09-20T01:27:36.912Z,9.90
2017-09-20T01:30:46.625Z,9.90
2017-09-20T01:33:56.719Z,9.90
2017-09-20T01:37:07.749Z,9.90
2017-09-20T01:40:18.276Z,9.90
2017-09-20T01:43:28.132Z,9.90
2017-09-20T01:46:38.225Z,9.90
2017-09-20T01:49:49.434Z,9.90
2017-09-20T01:52:59.382Z,9.90
2017-09-20T01:56:09.860Z,9.90
2017-09-20T01:59:20.403Z,9.90
2017-09-20T02:02:30.385Z,10.00
2017-09-20T02:05:40.249Z,10.00
2017-09-20T02:08:51.140Z,10.00
2017-09-20T02:12:01.087Z,10.00
2017-09-20T02:15:11.459Z,10.00
2017-09-20T02:18:21.927Z,10.00
2017-09-20T02:21:32.549Z,10.00
2017-09-20T02:24:42.756Z,9.90
2017-09-20T02:27:53.288Z,9.90
2017-09-20T02:31:03.675Z,10.00
2017-09-20T02:34:14.012Z,10.00
2017-09-20T02:37:24.141Z,10.00
2017-09-20T02:40:34.298Z,10.00
2017-09-20T02:43:44.731Z,10.00
2017-09-20T02:46:54.793Z,10.00
2017-09-20T02:50:04.860Z,10.00
2017-09-20T02:53:15.118Z,9.80
2017-09-20T02:56:25.589Z,9.80
2017-09-20T02:59:35.623Z,9.80
2017-09-20T03:02:46.193Z,9.90
2017-09-20T03:05:56.019Z,9.90
2017-09-20T03:09:06.526Z,9.90
2017-09-20T03:12:17.234Z,10.00
2017-09-20T03:15:27.972Z,10.00
2017-09-20T03:18:38.344Z,10.00
2017-09-20T03:21:48.370Z,10.00
2017-09-20T03:24:58.668Z,10.00
2017-09-20T03:28:08.591Z,10.00
2017-09-20T03:31:18.889Z,10.00
2017-09-20T03:34:29.222Z,10.00
2017-09-20T03:37:39.401Z,10.10
2017-09-20T03:40:49.485Z,10.00
2017-09-20T03:43:59.554Z,10.00
2017-09-20T03:47:09.645Z,9.90
2017-09-20T03:50:20.520Z,9.80
2017-09-20T03:53:31.154Z,9.80
2017-09-20T03:56:41.614Z,9.80
2017-09-20T03:59:51.688Z,9.80
2017-09-20T04:03:02.232Z,9.90
2017-09-20T04:06:12.433Z,9.90
2017-09-20T04:09:23.346Z,9.80
2017-09-20T04:12:33.680Z,9.80
2017-09-20T04:15:45.304Z,9.80
2017-09-20T04:18:56.379Z,9.70
2017-09-20T04:22:06.503Z,9.70
2017-09-20T04:25:17.175Z,9.70
2017-09-20T04:28:27.220Z,9.80
2017-09-20T04:31:37.432Z,9.80
2017-09-20T04:34:47.288Z,9.70
2017-09-20T04:37:57.543Z,9.70
2017-09-20T04:41:07.993Z,9.70
2017-09-20T04:44:18.026Z,9.50
2017-09-20T04:47:27.964Z,9.50
2017-09-20T04:50:38.754Z,9.60
2017-09-20T04:53:48.717Z,9.60
2017-09-20T04:56:59.300Z,9.60
2017-09-20T05:00:09.241Z,9.60
2017-09-20T05:03:20.258Z,9.50
2017-09-20T05:06:31.088Z,9.50
2017-09-20T05:09:41.568Z,9.50
2017-09-20T05:12:51.833Z,9.60
2017-09-20T05:16:01.802Z,9.70
2017-09-20T05:19:12.250Z,9.60
2017-09-20T05:22:22.198Z,9.70
2017-09-20T05:25:32.497Z,9.70
2017-09-20T05:28:43.369Z,9.70
2017-09-20T05:31:53.058Z,9.60
2017-09-20T05:35:03.705Z,9.70
2017-09-20T05:38:14.494Z,9.80
2017-09-20T05:41:24.388Z,9.80
2017-09-20T05:44:34.437Z,9.80
2017-09-20T05:47:44.536Z,9.90
2017-09-20T05:50:54.373Z,9.90
2017-09-20T05:54:04.872Z,9.90
2017-09-20T05:57:15.356Z,10.00
2017-09-20T06:00:25.851Z,10.00
2017-09-20T06:03:35.898Z,9.90
2017-09-20T06:06:46.353Z,10.00
2017-09-20T06:09:56.838Z,10.10
2017-09-20T06:13:07.084Z,10.10
2017-09-20T06:16:17.463Z,10.10
2017-09-20T06:19:27.943Z,10.20
2017-09-20T06:22:37.995Z,10.20
2017-09-20T06:25:47.789Z,10.20
2017-09-20T06:28:58.040Z,10.20
2017-09-20T06:32:08.777Z,10.20
2017-09-20T06:35:19.536Z,10.20
2017-09-20T06:38:29.977Z,10.20
2017-09-20T06:41:40.201Z,10.20
2017-09-20T06:44:51.143Z,10.30
2017-09-20T06:48:01.331Z,10.20
2017-09-20T06:51:11.638Z,10.30
2017-09-20T06:54:21.738Z,10.40
2017-09-20T06:57:31.797Z,10.40
2017-09-20T07:00:42.171Z,10.40
2017-09-20T07:03:52.346Z,10.40
2017-09-20T07:07:02.123Z,10.50
2017-09-20T07:10:12.118Z,10.50
2017-09-20T07:13:21.963Z,10.50
2017-09-20T07:16:32.572Z,10.50
2017-09-20T07:19:43.265Z,10.50
2017-09-20T07:22:53.371Z,10.60
2017-09-20T07:26:03.515Z,10.60
2017-09-20T07:29:13.994Z,10.70
2017-09-20T07:32:24.000Z,10.60
2017-09-20T07:35:34.482Z,10.70
2017-09-20T07:38:44.723Z,10.70
2017-09-20T07:41:54.680Z,10.70
2017-09-20T07:45:05.222Z,10.70
2017-09-20T07:48:15.908Z,10.70
2017-09-20T07:51:26.157Z,10.70
2017-09-20T07:54:36.500Z,10.70
2017-09-20T07:57:47.120Z,10.70
2017-09-20T08:00:57.540Z,10.80
2017-09-20T08:04:08.427Z,10.90
2017-09-20T08:07:19.615Z,10.90
2017-09-20T08:10:30.876Z,10.80
2017-09-20T08:13:41.166Z,10.80
2017-09-20T08:16:51.263Z,10.90
2017-09-20T08:20:01.173Z,10.90
2017-09-20T08:23:11.123Z,10.80
2017-09-20T08:26:21.272Z,10.80
2017-09-20T08:29:31.591Z,10.80
2017-09-20T08:32:42.335Z,10.80
2017-09-20T08:35:51.944Z,10.70
2017-09-20T08:39:02.805Z,10.80
2017-09-20T08:42:12.683Z,10.80
2017-09-20T08:45:23.329Z,10.80
2017-09-20T08:48:33.536Z,10.80
2017-09-20T08:51:43.476Z,10.80
2017-09-20T08:54:54.054Z,10.70
2017-09-20T08:58:04.654Z,10.50
2017-09-20T09:01:14.919Z,10.40
2017-09-20T09:04:24.975Z,10.40
2017-09-20T09:07:35.611Z,10.30
2017-09-20T09:10:46.757Z,10.30
2017-09-20T09:13:56.865Z,10.20
2017-09-20T09:17:06.669Z,10.40
2017-09-20T09:20:16.810Z,10.30
2017-09-20T09:23:27.752Z,10.30
2017-09-20T09:26:38.008Z,10.30
2017-09-20T09:29:47.743Z,10.10
2017-09-20T09:32:58.200Z,10.20
2017-09-20T09:36:08.380Z,10.20
2017-09-20T09:39:18.702Z,10.10
2017-09-20T09:42:28.946Z,10.10
2017-09-20T09:45:39.145Z,10.10
2017-09-20T09:48:49.515Z,10.00
2017-09-20T09:51:59.723Z,10.10
2017-09-20T09:55:09.791Z,10.10
2017-09-20T09:58:20.717Z,10.30
2017-09-20T10:01:30.908Z,10.30
2017-09-20T10:04:42.154Z,10.40
2017-09-20T10:07:52.735Z,10.40
2017-09-20T10:11:03.060Z,10.40
2017-09-20T10:14:13.434Z,10.50
2017-09-20T10:17:23.595Z,10.40
2017-09-20T10:20:33.643Z,10.50
2017-09-20T10:23:44.899Z,10.60
2017-09-20T10:26:55.539Z,10.60
2017-09-20T10:30:05.436Z,10.70
2017-09-20T10:33:16.280Z,10.70
2017-09-20T10:36:26.608Z,10.70
2017-09-20T10:39:37.301Z,10.80
2017-09-20T10:42:47.905Z,10.90
2017-09-20T10:45:57.937Z,11.00
2017-09-20T10:49:07.827Z,11.00
2017-09-20T10:52:17.858Z,10.90
2017-09-20T10:55:28.594Z,10.90
2017-09-20T10:58:38.780Z,11.00
2017-09-20T11:01:49.079Z,11.00
2017-09-20T11:04:58.892Z,11.00
2017-09-20T11:08:08.842Z,11.20
2017-09-20T11:11:19.597Z,11.30
2017-09-20T11:14:29.483Z,11.30
2017-09-20T11:17:40.999Z,11.40
2017-09-20T11:20:51.736Z,11.30
2017-09-20T11:24:01.862Z,11.40
2017-09-20T11:27:12.547Z,11.50
2017-09-20T11:30:22.926Z,11.50
2017-09-20T11:33:33.009Z,11.50
2017-09-20T11:36:43.360Z,11.60
2017-09-20T11:39:53.816Z,11.70
2017-09-20T11:43:04.200Z,11.60
2017-09-20T11:46:14.364Z,11.90
2017-09-20T11:49:24.740Z,12.10
2017-09-20T11:52:34.529Z,12.20
2017-09-20T11:55:44.767Z,12.40
2017-09-20T11:58:54.712Z,12.60
2017-09-20T12:02:04.612Z,12.60
2017-09-20T12:05:15.014Z,12.50
2017-09-20T12:08:25.037Z,12.30
2017-09-20T12:11:35.388Z,12.60
2017-09-20T12:14:46.354Z,12.80
2017-09-20T12:17:56.284Z,12.80
2017-09-20T12:21:06.781Z,12.90
2017-09-20T12:24:17.117Z,13.00
2017-09-20T12:27:27.123Z,13.10
2017-09-20T12:30:37.062Z,13.10
2017-09-20T12:33:47.714Z,13.20
2017-09-20T12:36:57.923Z,13.10
2017-09-20T12:40:08.276Z,13.50
2017-09-20T12:43:18.923Z,13.70
2017-09-20T12:46:29.212Z,13.80
2017-09-20T12:49:39.866Z,14.20
2017-09-20T12:52:50.288Z,14.20
2017-09-20T12:56:00.785Z,14.20
2017-09-20T12:59:10.622Z,14.20
2017-09-20T13:02:21.534Z,14.10
2017-09-20T13:05:32.138Z,14.10
2017-09-20T13:08:42.676Z,14.00
2017-09-20T13:11:52.848Z,14.20
2017-09-20T13:15:02.883Z,14.50
2017-09-20T13:18:13.635Z,14.70
2017-09-20T13:21:24.303Z,14.70
2017-09-20T13:24:34.267Z,14.60
2017-09-20T13:27:44.127Z,14.70
2017-09-20T13:30:54.067Z,15.00
2017-09-20T13:34:04.179Z,14.80
2017-09-20T13:37:14.875Z,14.70
2017-09-20T13:40:25.152Z,14.80
2017-09-20T13:43:35.143Z,14.90
2017-09-20T13:46:45.245Z,15.00
2017-09-20T13:49:55.192Z,14.80
2017-09-20T13:53:05.932Z,14.70
2017-09-20T13:56:16.246Z,14.70
2017-09-20T13:59:26.864Z,14.70
2017-09-20T14:02:37.077Z,14.70
2017-09-20T14:05:46.907Z,14.70
2017-09-20T14:08:56.909Z,15.00
2017-09-20T14:12:06.914Z,15.10
2017-09-20T14:15:16.907Z,14.70
2017-09-20T14:18:26.847Z,14.90
2017-09-20T14:21:37.552Z,15.00
2017-09-20T14:24:47.319Z,14.90
2017-09-20T14:27:57.345Z,15.10
2017-09-20T14:31:07.651Z,15.00
2017-09-20T14:34:17.995Z,15.20
2017-09-20T14:37:28.323Z,15.30
2017-09-20T14:40:38.250Z,15.40
2017-09-20T14:43:48.260Z,15.40
2017-09-20T14:46:59.189Z,15.00
2017-09-20T14:50:09.470Z,15.00
2017-09-20T14:53:19.072Z,14.60
2017-09-20T14:56:28.873Z,14.70
2017-09-20T14:59:39.370Z,14.70
2017-09-20T15:02:49.448Z,14.80
2017-09-20T15:05:59.359Z,14.60
2017-09-20T15:09:09.379Z,14.50
2017-09-20T15:12:19.468Z,14.50
2017-09-20T15:15:29.667Z,13.80
2017-09-20T15:18:39.699Z,13.10
2017-09-20T15:21:51.377Z,12.80
2017-09-20T15:25:03.318Z,12.70
2017-09-20T15:28:14.218Z,12.60
2017-09-20T15:31:24.241Z,12.30
2017-09-20T15:34:34.575Z,12.10
2017-09-20T15:37:45.415Z,11.70
2017-09-20T15:40:56.644Z,11.60
2017-09-20T15:44:07.092Z,11.60
2017-09-20T15:47:17.538Z,11.60
2017-09-20T15:50:28.148Z,11.60
2017-09-20T15:53:39.233Z,11.70
2017-09-20T15:56:49.234Z,11.60
2017-09-20T15:59:59.100Z,11.70
2017-09-20T16:03:10.619Z,12.10
2017-09-20T16:06:21.031Z,12.10
2017-09-20T16:09:30.856Z,12.30
2017-09-20T16:12:40.800Z,12.30
2017-09-20T16:15:50.731Z,12.40
2017-09-20T16:19:00.663Z,12.40
2017-09-20T16:22:11.935Z,12.40
2017-09-20T16:25:22.524Z,12.40
2017-09-20T16:28:32.490Z,12.40
2017-09-20T16:31:42.908Z,12.30
2017-09-20T16:34:53.793Z,12.20
2017-09-20T16:38:04.301Z,12.20
2017-09-20T16:41:14.612Z,12.30
2017-09-20T16:44:24.856Z,12.30
2017-09-20T16:47:35.324Z,12.30
2017-09-20T16:50:44.989Z,12.30
2017-09-20T16:53:55.651Z,12.30
2017-09-20T16:57:05.763Z,12.30
2017-09-20T17:00:16.380Z,12.30
2017-09-20T17:03:26.588Z,12.20
2017-09-20T17:06:37.059Z,12.20
2017-09-20T17:09:47.268Z,12.10
2017-09-20T17:12:57.388Z,12.20
2017-09-20T17:16:07.573Z,12.10
2017-09-20T17:19:17.335Z,12.10
2017-09-20T17:22:27.783Z,12.00
2017-09-20T17:25:38.144Z,11.90
2017-09-20T17:28:48.023Z,11.90
2017-09-20T17:31:58.043Z,11.90
2017-09-20T17:35:08.109Z,11.60
2017-09-20T17:38:17.956Z,11.60
2017-09-20T17:41:29.411Z,11.70
2017-09-20T17:44:39.516Z,11.70
2017-09-20T17:47:49.291Z,11.80
2017-09-20T17:50:59.063Z,11.80
2017-09-20T17:54:08.778Z,11.70
2017-09-20T17:57:20.167Z,11.70
2017-09-20T18:00:31.486Z,11.70
2017-09-20T18:03:42.195Z,11.70
2017-09-20T18:06:53.601Z,11.80
2017-09-20T18:10:03.584Z,11.70
2017-09-20T18:13:13.625Z,11.60
2017-09-20T18:16:25.998Z,11.50
2017-09-20T18:19:36.283Z,11.40
2017-09-20T18:22:46.190Z,11.60
2017-09-20T18:25:56.257Z,11.60
2017-09-20T18:29:06.695Z,11.60
2017-09-20T18:32:16.806Z,11.60
2017-09-20T18:35:26.791Z,11.60
2017-09-20T18:38:37.992Z,11.60
2017-09-20T18:41:48.539Z,11.60
2017-09-20T18:44:59.346Z,11.60
2017-09-20T18:48:10.485Z,11.60
2017-09-20T18:51:20.565Z,11.50
2017-09-20T18:54:30.453Z,11.60
2017-09-20T18:57:40.462Z,11.60
2017-09-20T19:00:50.382Z,11.60
2017-09-20T19:04:00.438Z,11.60
2017-09-20T19:07:12.108Z,11.60
2017-09-20T19:10:23.300Z,11.50
2017-09-20T19:13:33.911Z,11.50
2017-09-20T19:16:44.162Z,11.40
2017-09-20T19:19:54.561Z,11.40
2017-09-20T19:23:04.698Z,11.30
2017-09-20T19:26:15.262Z,11.30
2017-09-20T19:29:25.295Z,11.20
2017-09-20T19:32:36.429Z,11.30
2017-09-20T19:35:46.476Z,11.30
2017-09-20T19:38:57.253Z,11.30
2017-09-20T19:42:06.769Z,11.30
2017-09-20T19:45:17.191Z,11.40
2017-09-20T19:48:27.541Z,11.30
2017-09-20T19:51:37.320Z,11.30
2017-09-20T19:54:47.910Z,11.20
2017-09-20T19:57:59.099Z,11.30
2017-09-20T20:01:08.955Z,11.30
2017-09-20T20:04:19.144Z,11.20
2017-09-20T20:07:29.446Z,11.20
2017-09-20T20:10:40.335Z,11.20
2017-09-20T20:13:51.282Z,11.10
2017-09-20T20:17:01.241Z,11.20
2017-09-20T20:20:11.568Z,11.20
2017-09-20T20:23:21.591Z,11.10
2017-09-20T20:26:31.394Z,11.20
2017-09-20T20:29:41.342Z,11.20
2017-09-20T20:32:51.487Z,11.20
2017-09-20T20:36:01.894Z,11.10
2017-09-20T20:39:12.495Z,11.10
2017-09-20T20:42:24.172Z,11.20
2017-09-20T20:45:34.103Z,11.10
2017-09-20T20:48:44.258Z,11.10
2017-09-20T20:51:54.987Z,11.10
2017-09-20T20:55:05.581Z,11.10
2017-09-20T20:58:15.488Z,11.00
2017-09-20T21:01:26.382Z,11.00
2017-09-20T21:04:36.321Z,11.00
2017-09-20T21:07:46.304Z,10.90
2017-09-20T21:10:56.540Z,11.00
2017-09-20T21:14:07.058Z,10.90
2017-09-20T21:17:16.964Z,11.00
2017-09-20T21:20:27.558Z,11.00
2017-09-20T21:23:37.376Z,10.90
2017-09-20T21:26:47.645Z,10.90
2017-09-20T21:29:57.545Z,10.90
2017-09-20T21:33:08.112Z,10.80
2017-09-20T21:36:18.518Z,10.80
2017-09-20T21:39:28.300Z,10.80
2017-09-20T21:42:38.817Z,10.70
2017-09-20T21:45:48.919Z,10.70
2017-09-20T21:48:58.886Z,10.70
2017-09-20T21:52:08.986Z,10.70
2017-09-20T21:55:19.805Z,10.70
2017-09-20T21:58:30.457Z,10.60
2017-09-20T22:01:40.382Z,10.60
2017-09-20T22:04:50.096Z,10.50
2017-09-20T22:07:59.965Z,10.50
2017-09-20T22:11:10.592Z,10.50
2017-09-20T22:14:20.562Z,10.50
2017-09-20T22:17:42.640Z,10.50
2017-09-20T22:21:04.631Z,10.40
2017-09-20T22:24:27.397Z,10.30
2017-09-20T22:27:38.061Z,10.20
2017-09-20T22:30:48.278Z,10.20
2017-09-20T22:33:58.999Z,10.20
2017-09-20T22:37:09.421Z,10.20
2017-09-20T22:40:19.211Z,10.30
2017-09-20T22:43:29.250Z,10.30
2017-09-20T22:46:39.558Z,10.20
2017-09-20T22:49:50.621Z,10.20
2017-09-20T22:53:00.779Z,10.20
2017-09-20T22:56:10.740Z,10.20
2017-09-20T22:59:20.606Z,10.20
2017-09-20T23:02:34.864Z,10.20
2017-09-20T23:05:45.291Z,10.10
2017-09-20T23:08:55.041Z,10.20
2017-09-20T23:12:05.739Z,10.20
2017-09-20T23:15:16.055Z,10.20
2017-09-20T23:18:26.080Z,10.30
2017-09-20T23:21:36.218Z,10.30
2017-09-20T23:24:46.572Z,10.20
2017-09-20T23:27:56.224Z,10.20
2017-09-20T23:31:07.185Z,10.30
2017-09-20T23:34:17.496Z,10.30
2017-09-20T23:37:27.787Z,10.20
2017-09-20T23:40:37.750Z,10.30
2017-09-20T23:43:48.231Z,10.30
2017-09-20T23:46:58.291Z,10.30
2017-09-20T23:50:08.342Z,10.30
2017-09-20T23:53:18.090Z,10.20
2017-09-20T23:56:28.079Z,10.20
2017-09-20T23:59:38.164Z,10.20
